Time;durP1;ratioP1;P1;durP2;ratioP2;P2;SDS_P1;SDS_P2;PMS_P1;PMS_P2;Temp;Humidity;BMP_temperature;BMP_pressure;BME280_temperature;BME280_humidity;BME280_pressure;Samples;Min_cycle;Max_cycle;Signal;HPM_P1;HPM_P2
2022/08/06 00:02:37;;;;;;;;;;;;;;;26.60;41.43;99529.22;4289604;33;19980;-91
2022/08/06 00:05:04;;;;;;;;;;;;;;;26.58;41.74;99535.53;4296005;33;20004;-94
2022/08/06 00:07:33;;;;;;;;;;;;;;;26.43;41.77;99529.25;4293691;33;20000;-93
2022/08/06 00:10:18;;;;;;;;;;;;;;;26.23;42.75;99527.69;4289623;33;20015;-89
2022/08/06 00:12:44;;;;;;;;;;;;;;;26.34;42.19;99532.41;4281484;33;20020;-94
2022/08/06 00:15:14;;;;;;;;;;;;;;;26.16;42.89;99536.87;4289819;33;19989;-94
2022/08/06 00:17:46;;;;;;;;;;;;;;;26.32;42.41;99535.13;4281926;33;19999;-94
2022/08/06 00:20:16;;;;;;;;;;;;;;;26.32;41.42;99540.44;4281792;33;19998;-94
2022/08/06 00:22:58;;;;;;;;;;;;;;;26.40;42.04;99538.22;4284454;33;19992;-93
2022/08/06 00:25:25;;;;;;;;;;;;;;;26.42;41.69;99541.66;4296240;33;19985;-90
2022/08/06 00:27:55;;;;;;;;;;;;;;;26.38;42.39;99544.56;4296024;33;19998;-94
2022/08/06 00:30:21;;;;;;;;;;;;;;;26.42;41.65;99551.44;4295462;33;20320;-93
2022/08/06 00:32:49;;;;;;;;;;;;;;;26.23;41.98;99540.94;4291815;33;20040;-92
2022/08/06 00:35:21;;;;;;;;;;;;;;;26.43;41.05;99546.03;4281430;33;20331;-93
2022/08/06 00:37:55;;;;;;;;;;;;;;;26.53;40.69;99540.25;4289369;33;20295;-89
2022/08/06 00:40:28;;;;;;;;;;;;;;;26.43;41.16;99546.03;4283582;33;19984;-92
2022/08/06 00:42:57;;;;;;;;;;;;;;;26.35;41.89;99544.72;4286124;33;20133;-86
2022/08/06 00:45:23;;;;;;;;;;;;;;;26.36;41.37;99542.00;4298213;33;20431;-91
2022/08/06 00:47:52;;;;;;;;;;;;;;;26.31;41.46;99538.72;4287906;33;19997;-90
2022/08/06 00:50:32;;;;;;;;;;;;;;;26.26;41.79;99542.56;4290376;33;19999;-86
2022/08/06 00:53:01;;;;;;;;;;;;;;;26.06;41.94;99541.81;4283390;33;19984;-87
2022/08/06 00:55:28;;;;;;;;;;;;;;;26.10;42.18;99540.75;4290324;33;20048;-91
2022/08/06 00:58:05;;;;;;;;;;;;;;;26.32;41.91;99540.44;4283503;33;19976;-90
2022/08/06 01:00:33;;;;;;;;;;;;;;;26.23;41.84;99535.63;4289777;33;20000;-90
2022/08/06 01:03:04;;;;;;;;;;;;;;;26.30;41.57;99531.72;4297713;33;20005;-88
2022/08/06 01:05:31;;;;;;;;;;;;;;;25.94;43.38;99535.37;4297361;33;20732;-85
2022/08/06 01:08:19;;;;;;;;;;;;;;;26.14;42.07;99536.97;4295936;33;20770;-89
2022/08/06 01:10:46;;;;;;;;;;;;;;;26.06;42.68;99530.34;4295675;33;19988;-89
2022/08/06 01:13:17;;;;;;;;;;;;;;;25.79;43.04;99530.84;4307484;33;19977;-91
2022/08/06 01:16:05;;;;;;;;;;;;;;;25.90;42.83;99528.50;4293092;33;19981;-91
2022/08/06 01:18:40;;;;;;;;;;;;;;;25.94;42.62;99530.06;4295958;33;20347;-89
2022/08/06 01:21:11;;;;;;;;;;;;;;;25.90;42.83;99523.19;4293633;33;20347;-91
2022/08/06 01:24:12;;;;;;;;;;;;;;;25.75;43.19;99519.53;4284195;33;19981;-90
2022/08/06 01:26:40;;;;;;;;;;;;;;;25.56;44.28;99523.19;4289154;33;20237;-91
2022/08/06 01:29:20;;;;;;;;;;;;;;;25.80;42.97;99524.59;4284708;33;20829;-87
2022/08/06 01:32:01;;;;;;;;;;;;;;;25.80;42.93;99515.78;4303201;33;19989;-86
2022/08/06 01:34:34;;;;;;;;;;;;;;;25.70;43.44;99531.28;4297468;33;20033;-92
2022/08/06 01:37:11;;;;;;;;;;;;;;;25.61;44.05;99526.47;4308297;33;20377;-91
2022/08/06 01:39:40;;;;;;;;;;;;;;;25.63;44.02;99524.59;4297681;33;20040;-90
2022/08/06 01:42:28;;;;;;;;;;;;;;;25.56;44.30;99528.47;4297418;33;20388;-93
2022/08/06 01:45:03;;;;;;;;;;;;;;;25.67;43.79;99527.00;4291228;33;19981;-91
2022/08/06 01:47:31;;;;;;;;;;;;;;;25.47;44.15;99532.47;4283954;33;20003;-86
2022/08/06 01:50:21;;;;;;;;;;;;;;;25.60;43.49;99530.06;4290327;33;19975;-96
2022/08/06 01:52:55;;;;;;;;;;;;;;;25.59;44.03;99523.91;4293995;33;19989;-94
2022/08/06 01:55:27;;;;;;;;;;;;;;;25.48;44.62;99527.06;4283475;33;20032;-96
2022/08/06 01:58:16;;;;;;;;;;;;;;;25.48;44.35;99527.06;4292419;33;20000;-93
2022/08/06 02:00:55;;;;;;;;;;;;;;;25.46;44.09;99523.66;4283490;33;20040;-93
2022/08/06 02:03:31;;;;;;;;;;;;;;;25.44;44.55;99530.81;4293014;33;20287;-92
2022/08/06 02:06:18;;;;;;;;;;;;;;;25.18;45.59;99528.63;4300098;33;19980;-92
2022/08/06 02:08:55;;;;;;;;;;;;;;;25.34;44.87;99529.56;4292365;33;19973;-92
2022/08/06 02:11:22;;;;;;;;;;;;;;;25.34;45.17;99528.72;4301065;33;19996;-94
2022/08/06 02:14:09;;;;;;;;;;;;;;;25.26;44.80;99532.59;4283799;33;20008;-88
2022/08/06 02:16:37;;;;;;;;;;;;;;;25.21;44.95;99528.47;4295059;33;19984;-96
2022/08/06 02:19:08;;;;;;;;;;;;;;;25.12;45.37;99534.19;4295786;33;20016;-91
2022/08/06 02:21:42;;;;;;;;;;;;;;;25.11;45.63;99527.16;4300571;33;19981;-92
2022/08/06 02:24:09;;;;;;;;;;;;;;;25.03;45.61;99530.19;4308720;33;19992;-93
2022/08/06 02:26:37;;;;;;;;;;;;;;;25.09;45.85;99539.62;4296684;33;20299;-91
2022/08/06 02:29:10;;;;;;;;;;;;;;;25.13;45.74;99525.31;4307430;33;20003;-87
2022/08/06 02:31:40;;;;;;;;;;;;;;;24.98;45.58;99538.38;4309376;33;19989;-84
2022/08/06 02:34:17;;;;;;;;;;;;;;;24.84;45.94;99535.50;4284881;33;19999;-94
2022/08/06 02:37:03;;;;;;;;;;;;;;;24.94;45.58;99542.06;4298859;33;19995;-90
2022/08/06 02:39:42;;;;;;;;;;;;;;;24.90;46.15;99537.84;4293184;33;19999;-90
2022/08/06 02:42:20;;;;;;;;;;;;;;;24.74;46.65;99534.22;4300766;33;19995;-95
2022/08/06 02:45:01;;;;;;;;;;;;;;;24.74;46.31;99534.22;4294817;33;19980;-95
2022/08/06 02:47:30;;;;;;;;;;;;;;;24.74;46.33;99534.22;4293006;33;20363;-86
2022/08/06 02:50:18;;;;;;;;;;;;;;;24.75;46.47;99535.94;4282762;33;20008;-92
2022/08/06 02:52:48;;;;;;;;;;;;;;;24.77;46.08;99534.09;4286851;33;19981;-91
2022/08/06 02:55:26;;;;;;;;;;;;;;;24.70;46.30;99535.31;4295612;33;20047;-93
2022/08/06 02:58:02;;;;;;;;;;;;;;;24.77;46.51;99528.78;4292303;33;19977;-91
2022/08/06 03:00:30;;;;;;;;;;;;;;;24.79;46.24;99526.91;4282868;33;19981;-91
2022/08/06 03:03:00;;;;;;;;;;;;;;;24.54;46.88;99525.44;4293525;33;20005;-89
2022/08/06 03:05:27;;;;;;;;;;;;;;;24.86;45.81;99528.34;4301350;33;20000;-90
2022/08/06 03:08:15;;;;;;;;;;;;;;;24.67;46.33;99531.00;4274142;33;19985;-90
2022/08/06 03:10:42;;;;;;;;;;;;;;;24.61;46.41;99538.38;4282460;33;19988;-87
2022/08/06 03:13:08;;;;;;;;;;;;;;;24.57;46.62;99533.22;4293266;33;19985;-92
2022/08/06 03:15:37;;;;;;;;;;;;;;;24.50;46.30;99537.06;4292088;33;20015;-86
2022/08/06 03:18:24;;;;;;;;;;;;;;;24.63;46.58;99539.16;4291324;33;19972;-86
2022/08/06 03:20:53;;;;;;;;;;;;;;;24.57;46.19;99538.53;4292775;33;19989;-90
2022/08/06 03:23:23;;;;;;;;;;;;;;;24.53;46.34;99536.91;4290424;33;19997;-83
2022/08/06 03:25:52;;;;;;;;;;;;;;;24.59;46.12;99536.63;4292317;33;20048;-88
2022/08/06 03:28:19;;;;;;;;;;;;;;;24.82;45.33;99532.06;4293051;33;19989;-83
2022/08/06 03:30:48;;;;;;;;;;;;;;;24.63;46.12;99537.34;4294489;33;19988;-83
2022/08/06 03:33:21;;;;;;;;;;;;;;;24.71;45.67;99540.50;4288660;33;19997;-84
2022/08/06 03:36:08;;;;;;;;;;;;;;;24.80;45.28;99544.53;4284476;33;19989;-90
2022/08/06 03:38:46;;;;;;;;;;;;;;;24.89;44.43;99546.75;3990741;33;10001175;-92
2022/08/06 03:41:20;;;;;;;;;;;;;;;25.03;44.03;99538.97;4284519;33;20025;-86
2022/08/06 03:43:55;;;;;;;;;;;;;;;24.81;45.09;99536.50;4300653;33;20000;-88
2022/08/06 03:46:50;;;;;;;;;;;;;;;24.73;45.33;99540.44;4293156;33;19992;-89
2022/08/06 03:49:18;;;;;;;;;;;;;;;24.47;46.41;99536.34;4281744;33;20036;-85
2022/08/06 03:51:53;;;;;;;;;;;;;;;24.63;45.85;99541.78;4292029;33;20323;-87
2022/08/06 03:54:28;;;;;;;;;;;;;;;24.56;45.87;99530.63;4292884;33;19990;-92
2022/08/06 03:57:00;;;;;;;;;;;;;;;24.57;46.11;99538.53;4299284;33;20344;-83
2022/08/06 03:59:41;;;;;;;;;;;;;;;24.70;46.01;99538.81;4291490;33;20722;-84
2022/08/06 04:02:23;;;;;;;;;;;;;;;24.69;45.96;99541.50;4305637;33;20032;-87
2022/08/06 04:05:11;;;;;;;;;;;;;;;24.64;45.35;99532.94;4300368;33;20286;-85
2022/08/06 04:07:39;;;;;;;;;;;;;;;24.88;45.33;99542.34;4282517;33;19995;-87
2022/08/06 04:10:26;;;;;;;;;;;;;;;24.73;46.66;99548.38;4302476;33;20524;-84
2022/08/06 04:13:02;;;;;;;;;;;;;;;24.77;46.62;99552.59;4296060;33;19981;-88
2022/08/06 04:15:50;;;;;;;;;;;;;;;24.86;45.99;99554.84;4300534;33;20041;-90
2022/08/06 04:18:20;;;;;;;;;;;;;;;24.95;45.95;99551.75;4286197;33;20068;-91
2022/08/06 04:20:47;;;;;;;;;;;;;;;25.06;42.28;99549.44;4294146;33;19988;-88
2022/08/06 04:23:19;;;;;;;;;;;;;;;25.05;44.50;99558.31;4306098;33;19995;-83
2022/08/06 04:26:04;;;;;;;;;;;;;;;24.89;45.41;99565.28;4291661;33;19993;-85
2022/08/06 04:28:33;;;;;;;;;;;;;;;25.03;43.38;99557.53;4288104;33;19997;-88
2022/08/06 04:31:06;;;;;;;;;;;;;;;24.95;45.35;99565.00;4293272;33;20003;-80
2022/08/06 04:33:33;;;;;;;;;;;;;;;25.11;45.13;99556.28;4294465;33;19981;-90
2022/08/06 04:36:05;;;;;;;;;;;;;;;25.15;43.74;99560.56;4293806;33;19981;-90
2022/08/06 04:38:49;;;;;;;;;;;;;;;25.13;44.74;99562.41;4288958;33;19992;-89
2022/08/06 04:41:17;;;;;;;;;;;;;;;25.27;44.27;99559.94;4282309;33;19992;-82
2022/08/06 04:43:45;;;;;;;;;;;;;;;25.32;44.32;99573.81;4300635;33;20029;-88
2022/08/06 04:46:21;;;;;;;;;;;;;;;25.43;42.94;99571.53;4285738;33;20003;-85
2022/08/06 04:48:49;;;;;;;;;;;;;;;25.46;43.71;99571.38;4283755;33;20361;-80
2022/08/06 04:51:26;;;;;;;;;;;;;;;25.49;43.54;99581.81;4286344;33;20387;-81
2022/08/06 04:54:13;;;;;;;;;;;;;;;25.61;43.34;99590.09;4308639;33;20546;-87
2022/08/06 04:56:41;;;;;;;;;;;;;;;25.64;41.26;99584.63;4311214;33;20016;-86
2022/08/06 04:59:16;;;;;;;;;;;;;;;25.74;41.31;99585.88;4298004;33;20059;-82
2022/08/06 05:01:43;;;;;;;;;;;;;;;25.82;42.43;99589.03;4303584;33;20408;-84
2022/08/06 05:04:29;;;;;;;;;;;;;;;25.96;40.22;99586.53;4309050;33;20011;-87
2022/08/06 05:07:05;;;;;;;;;;;;;;;25.93;41.44;99581.37;4297165;33;20007;-92
2022/08/06 05:09:38;;;;;;;;;;;;;;;26.02;42.07;99589.81;4298035;33;20430;-84
2022/08/06 05:12:30;;;;;;;;;;;;;;;26.02;41.30;99589.81;4308177;33;19992;-87
2022/08/06 05:15:01;;;;;;;;;;;;;;;25.98;42.15;99595.28;4306280;33;20126;-86
2022/08/06 05:17:29;;;;;;;;;;;;;;;26.18;41.82;99585.44;4148992;33;5002523;-89
2022/08/06 05:20:09;;;;;;;;;;;;;;;26.21;42.01;99596.72;4309886;33;20047;-87
2022/08/06 05:22:54;;;;;;;;;;;;;;;26.31;41.96;99599.75;4299524;33;20334;-88
2022/08/06 05:25:28;;;;;;;;;;;;;;;26.43;42.17;99596.47;4284854;33;19976;-87
2022/08/06 05:28:03;;;;;;;;;;;;;;;26.49;41.71;99599.78;4283875;33;20410;-84
2022/08/06 05:30:41;;;;;;;;;;;;;;;26.67;41.34;99604.06;4298889;33;20307;-85
2022/08/06 05:33:11;;;;;;;;;;;;;;;26.77;41.53;99610.63;4297239;33;19992;-89
2022/08/06 05:35:42;;;;;;;;;;;;;;;26.86;41.15;99615.41;4308047;33;20547;-88
2022/08/06 05:38:28;;;;;;;;;;;;;;;26.90;41.61;99614.31;4276254;33;19996;-87
2022/08/06 05:40:58;;;;;;;;;;;;;;;26.75;43.29;99607.19;4273055;33;20024;-86
2022/08/06 05:43:27;;;;;;;;;;;;;;;26.89;43.83;99615.25;4274732;33;19988;-84
2022/08/06 05:46:15;;;;;;;;;;;;;;;26.88;44.25;99612.69;4268729;33;20834;-84
2022/08/06 05:48:51;;;;;;;;;;;;;;;27.01;44.32;99615.53;4278220;33;19992;-83
2022/08/06 05:51:19;;;;;;;;;;;;;;;27.05;45.20;99617.06;4286541;33;19973;-84
2022/08/06 05:54:29;;;;;;;;;;;;;;;27.45;43.41;99612.19;4286316;33;19993;-80
2022/08/06 05:57:03;;;;;;;;;;;;;;;27.18;44.29;99610.13;4268791;33;20025;-82
2022/08/06 05:59:33;;;;;;;;;;;;;;;27.44;43.62;99605.16;4281414;33;20004;-82
2022/08/06 06:02:20;;;;;;;;;;;;;;;27.59;43.08;99609.59;4281859;33;20028;-84
2022/08/06 06:04:47;;;;;;;;;;;;;;;27.52;43.50;99613.56;4281344;33;20351;-84
2022/08/06 06:07:34;;;;;;;;;;;;;;;27.60;43.61;99613.97;4288192;33;20002;-84
2022/08/06 06:10:24;;;;;;;;;;;;;;;27.75;42.95;99618.38;4288173;33;20029;-84
2022/08/06 06:12:51;;;;;;;;;;;;;;;27.84;42.93;99616.19;4284934;33;20060;-82
2022/08/06 06:15:18;;;;;;;;;;;;;;;27.90;42.71;99613.16;4287924;33;20336;-83
2022/08/06 06:18:14;;;;;;;;;;;;;;;28.10;41.55;99610.16;4281524;33;20317;-84
2022/08/06 06:21:12;;;;;;;;;;;;;;;27.99;39.30;99612.63;4284374;33;19989;-83
2022/08/06 06:24:04;;;;;;;;;;;;;;;28.11;38.51;99611.87;4293961;33;20456;-83
2022/08/06 06:26:37;;;;;;;;;;;;;;;28.08;38.34;99608.53;4271686;33;20004;-83
2022/08/06 06:29:08;;;;;;;;;;;;;;;28.27;37.47;99627.75;4297109;33;20048;-79
2022/08/06 06:31:44;;;;;;;;;;;;;;;28.32;37.32;99620.37;4287945;33;20048;-80
2022/08/06 06:34:51;;;;;;;;;;;;;;;28.61;36.24;99621.25;4272914;33;20056;-82
2022/08/06 06:37:34;;;;;;;;;;;;;;;28.73;35.95;99636.50;4284550;33;19995;-80
2022/08/06 06:40:12;;;;;;;;;;;;;;;28.81;36.22;99624.50;4282063;33;19985;-82
2022/08/06 06:43:00;;;;;;;;;;;;;;;29.12;35.54;99626.97;4263408;33;20096;-80
2022/08/06 06:45:42;;;;;;;;;;;;;;;29.38;34.90;99635.06;4244286;33;20513;-80
2022/08/06 06:48:33;;;;;;;;;;;;;;;29.73;34.25;99626.59;4257685;33;20341;-81
2022/08/06 06:51:06;;;;;;;;;;;;;;;30.05;34.51;99627.09;4255948;33;19997;-80
2022/08/06 06:53:53;;;;;;;;;;;;;;;30.33;33.93;99626.09;4248236;33;19983;-82
2022/08/06 06:56:35;;;;;;;;;;;;;;;30.84;32.23;99630.59;4250977;33;19978;-81
2022/08/06 06:59:04;;;;;;;;;;;;;;;30.94;32.05;99637.81;4256325;33;20045;-80
2022/08/06 07:01:43;;;;;;;;;;;;;;;31.12;32.11;99624.12;4248845;33;19986;-80
2022/08/06 07:04:20;;;;;;;;;;;;;;;31.34;32.52;99634.13;4247381;33;20027;-80
2022/08/06 07:06:54;;;;;;;;;;;;;;;31.53;33.35;99637.16;4249153;33;20543;-80
2022/08/06 07:09:25;;;;;;;;;;;;;;;31.75;32.52;99639.09;4239642;33;19998;-81
2022/08/06 07:12:08;;;;;;;;;;;;;;;32.25;30.97;99642.41;4256321;33;19985;-81
2022/08/06 07:14:52;;;;;;;;;;;;;;;32.09;31.72;99652.59;4240228;33;19985;-81
2022/08/06 07:17:27;;;;;;;;;;;;;;;32.51;30.74;99643.09;4255366;33;20004;-80
2022/08/06 07:20:17;;;;;;;;;;;;;;;32.56;31.69;99640.94;4239729;33;19982;-82
2022/08/06 07:22:46;;;;;;;;;;;;;;;32.75;30.87;99645.69;4253359;33;19977;-81
2022/08/06 07:25:37;;;;;;;;;;;;;;;32.88;29.11;99646.41;4249707;33;19997;-80
2022/08/06 07:28:06;;;;;;;;;;;;;;;32.67;29.35;99653.47;4249549;33;19997;-81
2022/08/06 07:30:38;;;;;;;;;;;;;;;32.54;29.56;99644.69;4249828;33;20017;-81
2022/08/06 07:33:06;;;;;;;;;;;;;;;32.83;30.20;99654.00;4281812;33;19987;-82
2022/08/06 07:35:33;;;;;;;;;;;;;;;33.04;29.43;99653.25;4267805;33;19978;-80
2022/08/06 07:38:04;;;;;;;;;;;;;;;33.11;29.88;99654.47;4278150;33;20007;-80
2022/08/06 07:40:42;;;;;;;;;;;;;;;33.01;30.62;99657.03;4277992;33;20116;-80
2022/08/06 07:43:20;;;;;;;;;;;;;;;33.64;27.92;99654.62;4285963;33;19989;-79
2022/08/06 07:45:51;;;;;;;;;;;;;;;33.76;27.96;99648.25;4278138;33;19981;-79
2022/08/06 07:48:26;;;;;;;;;;;;;;;33.64;28.32;99660.00;4284633;33;20315;-78
2022/08/06 07:50:53;;;;;;;;;;;;;;;33.83;28.34;99658.47;4277642;33;19990;-77
2022/08/06 07:53:20;;;;;;;;;;;;;;;33.79;28.55;99653.34;4278180;33;19999;-78
2022/08/06 07:56:07;;;;;;;;;;;;;;;34.11;27.93;99652.50;4285044;33;20812;-78
2022/08/06 07:58:34;;;;;;;;;;;;;;;33.90;28.46;99649.75;4267477;33;20061;-78
2022/08/06 08:01:06;;;;;;;;;;;;;;;34.19;28.21;99644.63;4267195;33;20351;-78
2022/08/06 08:06:25;;;;;;;;;;;;;;;34.38;28.51;99654.66;4289207;33;20000;-79
2022/08/06 08:09:02;;;;;;;;;;;;;;;34.50;27.56;99652.75;4300010;33;19992;-77
2022/08/06 08:11:30;;;;;;;;;;;;;;;34.48;28.08;99649.31;4285465;33;20053;-77
2022/08/06 08:14:21;;;;;;;;;;;;;;;34.87;27.07;99646.84;4288443;33;19992;-79
2022/08/06 08:16:48;;;;;;;;;;;;;;;34.68;27.65;99651.16;4284841;33;19985;-79
2022/08/06 08:19:24;;;;;;;;;;;;;;;35.00;26.77;99650.16;4278162;33;20012;-78
2022/08/06 08:21:53;;;;;;;;;;;;;;;35.28;26.08;99653.09;4280399;33;20060;-78
2022/08/06 08:24:19;;;;;;;;;;;;;;;34.95;26.98;99653.25;4303608;33;19985;-78
2022/08/06 08:26:46;;;;;;;;;;;;;;;35.24;26.74;99651.69;4308261;33;20252;-76
2022/08/06 08:29:33;;;;;;;;;;;;;;;35.28;26.59;99659.31;4295045;33;20002;-76
2022/08/06 08:32:01;;;;;;;;;;;;;;;35.84;25.97;99652.50;4291637;33;19985;-76
2022/08/06 08:34:31;;;;;;;;;;;;;;;36.18;24.96;99652.06;4308066;33;19999;-77
2022/08/06 08:36:59;;;;;;;;;;;;;;;35.74;26.10;99643.53;4295859;33;19981;-77
2022/08/06 08:39:30;;;;;;;;;;;;;;;35.67;26.63;99645.09;4294711;33;19985;-77
2022/08/06 08:42:06;;;;;;;;;;;;;;;36.19;24.78;99648.38;4289725;33;19999;-77
2022/08/06 08:44:34;;;;;;;;;;;;;;;36.15;24.88;99646.94;4288467;33;20027;-76
2022/08/06 08:47:01;;;;;;;;;;;;;;;35.93;24.96;99642.69;4299523;33;20012;-76
2022/08/06 08:49:38;;;;;;;;;;;;;;;36.40;24.43;99646.34;4281697;33;20037;-77
2022/08/06 08:52:14;;;;;;;;;;;;;;;36.06;27.12;99644.16;4283515;33;20004;-78
2022/08/06 08:54:45;;;;;;;;;;;;;;;36.27;25.49;99649.34;4288292;33;19977;-79
2022/08/06 08:57:13;;;;;;;;;;;;;;;36.50;24.86;99651.72;4301524;33;19984;-78
2022/08/06 09:00:01;;;;;;;;;;;;;;;36.64;24.26;99653.13;4297772;33;20331;-77
2022/08/06 09:02:38;;;;;;;;;;;;;;;36.50;24.61;99657.97;4301576;33;20044;-78
2022/08/06 09:05:15;;;;;;;;;;;;;;;36.70;24.04;99660.63;4283516;33;19989;-77
2022/08/06 09:07:42;;;;;;;;;;;;;;;36.49;24.81;99661.62;4293532;33;20359;-77
2022/08/06 09:10:27;;;;;;;;;;;;;;;36.82;23.55;99659.41;4289144;33;20028;-77
2022/08/06 09:12:58;;;;;;;;;;;;;;;37.11;23.24;99655.75;4284171;33;19994;-78
2022/08/06 09:15:24;;;;;;;;;;;;;;;37.09;22.87;99658.63;4283117;33;19977;-78
2022/08/06 09:17:51;;;;;;;;;;;;;;;36.89;22.95;99652.44;4288036;33;20410;-77
2022/08/06 09:20:38;;;;;;;;;;;;;;;36.83;23.86;99652.19;4282706;33;19980;-77
2022/08/06 09:23:12;;;;;;;;;;;;;;;36.89;23.53;99647.06;4284986;33;20082;-77
2022/08/06 09:25:50;;;;;;;;;;;;;;;36.97;23.42;99655.25;4167742;33;20346;-77
2022/08/06 09:28:37;;;;;;;;;;;;;;;37.36;22.36;99652.34;4299477;33;20004;-77
2022/08/06 09:31:06;;;;;;;;;;;;;;;37.42;21.75;99643.63;4290897;33;19989;-77
2022/08/06 09:33:58;;;;;;;;;;;;;;;36.88;23.86;99642.63;4292616;33;19988;-77
2022/08/06 09:36:46;;;;;;;;;;;;;;;37.49;22.62;99648.47;4301094;33;19984;-80
2022/08/06 09:39:13;;;;;;;;;;;;;;;37.62;22.72;99647.09;4317846;33;19989;-81
2022/08/06 09:41:49;;;;;;;;;;;;;;;37.57;23.17;99648.56;4298198;33;20032;-80
2022/08/06 09:44:17;;;;;;;;;;;;;;;37.78;21.65;99643.69;4300451;33;19999;-79
2022/08/06 09:47:03;;;;;;;;;;;;;;;37.71;23.03;99648.00;4292313;33;20040;-80
2022/08/06 09:49:50;;;;;;;;;;;;;;;37.70;23.36;99640.91;4285532;33;19984;-81
2022/08/06 09:52:27;;;;;;;;;;;;;;;37.45;23.22;99640.66;4286117;33;20011;-79
2022/08/06 09:54:54;;;;;;;;;;;;;;;36.94;24.58;99644.75;4284918;33;20011;-80
2022/08/06 09:57:24;;;;;;;;;;;;;;;37.66;23.57;99639.53;4299434;33;19984;-80
2022/08/06 10:00:01;;;;;;;;;;;;;;;38.02;22.47;99639.53;4282955;33;20546;-80
2022/08/06 10:02:34;;;;;;;;;;;;;;;38.03;22.57;99641.22;4288935;33;19999;-80
2022/08/06 10:05:08;;;;;;;;;;;;;;;37.95;22.39;99639.31;4285343;33;20362;-80
2022/08/06 10:08:01;;;;;;;;;;;;;;;38.07;22.15;99638.06;4304142;33;19972;-81
2022/08/06 10:10:37;;;;;;;;;;;;;;;37.79;24.10;99634.59;4272370;33;20016;-80
2022/08/06 10:13:15;;;;;;;;;;;;;;;38.33;21.85;99632.66;4267393;33;19989;-79
2022/08/06 10:15:45;;;;;;;;;;;;;;;38.27;22.33;99644.09;4263017;33;20008;-78
2022/08/06 10:18:44;;;;;;;;;;;;;;;38.18;23.14;99642.34;4263892;33;19989;-79
2022/08/06 10:21:28;;;;;;;;;;;;;;;38.18;22.65;99639.66;4267834;33;19997;-78
2022/08/06 10:24:07;;;;;;;;;;;;;;;38.48;22.48;99632.09;4267161;33;20399;-79
2022/08/06 10:26:34;;;;;;;;;;;;;;;37.89;23.67;99640.75;4265685;33;20352;-78
2022/08/06 10:29:04;;;;;;;;;;;;;;;38.25;23.39;99632.59;4276391;33;19989;-78
2022/08/06 10:31:31;;;;;;;;;;;;;;;38.54;22.29;99632.28;4262333;33;20468;-78
2022/08/06 10:34:06;;;;;;;;;;;;;;;38.75;21.57;99637.31;4284973;33;20028;-78
2022/08/06 10:36:35;;;;;;;;;;;;;;;38.88;21.33;99633.34;4266548;33;20502;-79
2022/08/06 10:39:03;;;;;;;;;;;;;;;38.49;22.03;99625.69;4268405;33;20008;-79
2022/08/06 10:41:50;;;;;;;;;;;;;;;38.66;21.92;99632.88;4274887;33;20032;-79
2022/08/06 10:44:31;;;;;;;;;;;;;;;38.22;23.34;99624.78;4271280;33;19996;-79
2022/08/06 10:47:08;;;;;;;;;;;;;;;38.76;21.94;99633.59;4284303;33;20067;-79
2022/08/06 10:49:36;;;;;;;;;;;;;;;38.38;24.49;99630.34;4282937;33;20003;-79
2022/08/06 10:52:23;;;;;;;;;;;;;;;38.35;23.79;99627.91;4287688;33;20761;-79
2022/08/06 10:54:51;;;;;;;;;;;;;;;38.64;22.48;99626.75;4279525;33;20102;-79
2022/08/06 10:57:19;;;;;;;;;;;;;;;38.63;22.31;99619.66;4278463;33;20028;-79
2022/08/06 11:00:02;;;;;;;;;;;;;;;38.99;21.75;99633.88;4287720;33;19968;-79
2022/08/06 11:02:35;;;;;;;;;;;;;;;38.89;22.30;99626.91;4278608;33;19985;-79
2022/08/06 11:05:20;;;;;;;;;;;;;;;38.81;22.26;99625.84;4280377;33;20553;-79
2022/08/06 11:08:00;;;;;;;;;;;;;;;38.76;22.35;99622.78;4280265;33;20037;-79
2022/08/06 11:10:45;;;;;;;;;;;;;;;38.62;22.71;99609.88;4284920;33;20066;-79
2022/08/06 11:13:14;;;;;;;;;;;;;;;38.64;23.22;99623.22;4281160;33;20033;-78
2022/08/06 11:15:42;;;;;;;;;;;;;;;38.54;22.31;99617.94;4288892;33;19985;-79
2022/08/06 11:18:11;;;;;;;;;;;;;;;38.58;22.57;99616.62;4280313;33;20019;-80
2022/08/06 11:20:46;;;;;;;;;;;;;;;38.38;23.53;99606.00;4280161;33;20000;-79
2022/08/06 11:23:12;;;;;;;;;;;;;;;38.35;23.63;99609.00;4280152;33;20044;-79
2022/08/06 11:26:02;;;;;;;;;;;;;;;38.46;23.57;99609.78;4289108;33;19992;-79
2022/08/06 11:28:31;;;;;;;;;;;;;;;38.45;23.03;99613.47;4279331;33;20433;-79
2022/08/06 11:30:59;;;;;;;;;;;;;;;38.14;23.89;99611.25;4281358;33;20032;-79
2022/08/06 11:33:32;;;;;;;;;;;;;;;38.30;23.54;99610.50;4282656;33;19988;-79
2022/08/06 11:36:02;;;;;;;;;;;;;;;38.17;25.49;99615.50;4286508;33;19992;-79
2022/08/06 11:38:51;;;;;;;;;;;;;;;38.35;24.01;99603.59;4279888;33;20023;-79
2022/08/06 11:41:24;;;;;;;;;;;;;;;38.51;24.10;99602.00;4279789;33;20360;-79
2022/08/06 11:44:15;;;;;;;;;;;;;;;38.34;24.66;99596.47;4288486;33;20000;-80
2022/08/06 11:46:45;;;;;;;;;;;;;;;38.40;24.43;99605.00;4290227;33;20033;-79
2022/08/06 11:49:18;;;;;;;;;;;;;;;38.40;24.46;99610.41;4287331;33;20000;-79
2022/08/06 11:51:49;;;;;;;;;;;;;;;38.13;24.93;99607.69;4281180;33;19980;-79
2022/08/06 11:54:23;;;;;;;;;;;;;;;38.10;25.27;99610.72;4280762;33;19977;-79
2022/08/06 11:57:00;;;;;;;;;;;;;;;38.21;25.03;99615.00;4285210;33;19973;-79
2022/08/06 11:59:28;;;;;;;;;;;;;;;37.79;25.80;99615.66;4280868;33;20004;-79
2022/08/06 12:01:57;;;;;;;;;;;;;;;38.00;25.39;99619.91;4279513;33;19991;-79
2022/08/06 12:04:31;;;;;;;;;;;;;;;37.96;25.10;99619.37;4276882;33;19996;-79
2022/08/06 12:07:17;;;;;;;;;;;;;;;37.95;26.00;99616.84;4292884;33;19997;-79
2022/08/06 12:09:45;;;;;;;;;;;;;;;37.88;25.68;99620.13;4293150;33;19984;-79
2022/08/06 12:12:23;;;;;;;;;;;;;;;37.86;25.44;99624.00;4286735;33;19999;-79
2022/08/06 12:14:53;;;;;;;;;;;;;;;37.72;26.67;99633.50;4282101;33;19999;-79
2022/08/06 12:17:25;;;;;;;;;;;;;;;37.51;26.26;99614.91;4289042;33;20328;-79
2022/08/06 12:20:10;;;;;;;;;;;;;;;37.52;26.24;99632.78;4257377;33;785005;-80
2022/08/06 12:22:58;;;;;;;;;;;;;;;37.62;26.28;99624.62;4280481;33;19977;-79
2022/08/06 12:25:35;;;;;;;;;;;;;;;37.57;25.98;99635.06;4282578;33;19996;-79
2022/08/06 12:28:03;;;;;;;;;;;;;;;37.47;26.20;99625.16;4300134;33;20379;-79
2022/08/06 12:30:41;;;;;;;;;;;;;;;37.37;26.32;99624.38;4305466;33;19989;-79
2022/08/06 12:33:09;;;;;;;;;;;;;;;36.94;27.02;99628.56;4290061;33;20066;-79
2022/08/06 12:36:00;;;;;;;;;;;;;;;37.06;27.03;99631.09;4280706;33;20342;-79
2022/08/06 12:38:29;;;;;;;;;;;;;;;37.02;27.45;99635.94;4286427;33;19981;-79
2022/08/06 12:40:57;;;;;;;;;;;;;;;37.02;26.87;99635.09;4281997;33;19984;-79
2022/08/06 12:43:24;;;;;;;;;;;;;;;36.96;27.54;99626.56;4287541;33;20056;-79
2022/08/06 12:46:13;;;;;;;;;;;;;;;36.90;26.92;99627.16;4288260;33;19985;-78
2022/08/06 12:48:47;;;;;;;;;;;;;;;36.87;27.88;99637.41;4281937;33;19981;-79
2022/08/06 12:51:14;;;;;;;;;;;;;;;37.16;26.73;99639.97;4282408;33;20030;-78
2022/08/06 12:53:46;;;;;;;;;;;;;;;37.20;26.57;99638.66;4286324;33;19988;-78
2022/08/06 12:56:14;;;;;;;;;;;;;;;37.11;27.02;99634.16;4285526;33;20335;-79
2022/08/06 12:58:58;;;;;;;;;;;;;;;37.11;26.96;99634.16;4291553;33;20336;-80
2022/08/06 13:01:27;;;;;;;;;;;;;;;37.11;26.81;99623.38;4295548;33;20007;-79
2022/08/06 13:04:21;;;;;;;;;;;;;;;37.19;26.67;99634.28;4294176;33;20303;-79
2022/08/06 13:06:57;;;;;;;;;;;;;;;36.76;27.16;99638.47;4291994;33;20016;-78
2022/08/06 13:09:30;;;;;;;;;;;;;;;36.80;27.21;99631.75;4283326;33;19990;-79
2022/08/06 13:12:13;;;;;;;;;;;;;;;36.46;27.67;99629.56;4280515;33;19984;-79
2022/08/06 13:14:59;;;;;;;;;;;;;;;36.55;28.01;99631.41;4282032;33;20386;-79
2022/08/06 13:17:40;;;;;;;;;;;;;;;36.65;28.01;99633.25;4282326;33;20009;-80
2022/08/06 13:20:34;;;;;;;;;;;;;;;36.26;28.23;99633.31;4296439;33;20015;-79
2022/08/06 13:23:05;;;;;;;;;;;;;;;36.39;29.00;99628.47;4299910;33;19984;-80
2022/08/06 13:25:44;;;;;;;;;;;;;;;36.68;28.01;99627.53;4301983;33;19993;-79
2022/08/06 13:28:20;;;;;;;;;;;;;;;36.62;28.08;99634.38;4301654;33;19981;-79
2022/08/06 13:30:54;;;;;;;;;;;;;;;36.76;27.73;99625.81;4308373;33;20043;-79
2022/08/06 13:33:24;;;;;;;;;;;;;;;36.41;28.49;99626.47;4315815;33;19996;-79